Time;durP1;ratioP1;P1;durP2;ratioP2;P2;SDS_P1;SDS_P2;PMS_P1;PMS_P2;Temp;Humidity;BMP_temperature;BMP_pressure;BME280_temperature;BME280_humidity;BME280_pressure;Samples;Min_cycle;Max_cycle;Signal;HPM_P1;HPM_P2
2022/01/12 00:00:56;;;;;;;;;;;;;;;;;;2099046;28;19995;-86
2022/01/12 00:01:59;;;;;;;;;;;;;;;;;;2098845;28;19923;-87
2022/01/12 00:02:59;;;;;;;;;;;;;;;;;;2090166;28;20397;-87
2022/01/12 00:03:59;;;;;;;;;;;;;;;;;;2090343;28;19919;-86
2022/01/12 00:05:00;;;;;;;;;;;;;;;;;;2090086;28;19908;-84
2022/01/12 00:06:01;;;;;;;;;;;;;;;;;;2090084;28;20274;-86
2022/01/12 00:07:01;;;;;;;;;;;;;;;;;;2090194;28;19935;-85
2022/01/12 00:08:01;;;;;;;;;;;;;;;;;;2090149;28;19912;-86
2022/01/12 00:09:06;;;;;;;;;;;;;;;;;;2090130;28;20005;-84
2022/01/12 00:10:09;;;;;;;;;;;;;;;;;;2090748;28;20380;-86
2022/01/12 00:11:09;;;;;;;;;;;;;;;;;;2090085;28;19927;-86
2022/01/12 00:12:09;;;;;;;;;;;;;;;;;;2081787;28;19928;-89
2022/01/12 00:13:10;;;;;;;;;;;;;;;;;;2090244;28;19908;-85
2022/01/12 00:14:10;;;;;;;;;;;;;;;;;;2090153;28;19908;-86
2022/01/12 00:15:10;;;;;;;;;;;;;;;;;;2090078;28;20266;-85
2022/01/12 00:16:11;;;;;;;;;;;;;;;;;;2098825;28;19908;-86
2022/01/12 00:17:11;;;;;;;;;;;;;;;;;;2090036;28;19975;-86
2022/01/12 00:18:11;;;;;;;;;;;;;;;;;;2090381;28;20472;-86
2022/01/12 00:19:12;;;;;;;;;;;;;;;;;;2098753;28;19916;-86
2022/01/12 00:20:12;;;;;;;;;;;;;;;;;;2098870;28;20349;-86
2022/01/12 00:21:12;;;;;;;;;;;;;;;;;;2098829;28;20436;-86
2022/01/12 00:22:13;;;;;;;;;;;;;;;;;;2098916;28;19912;-86
2022/01/12 00:23:15;;;;;;;;;;;;;;;;;;2098744;28;19912;-86
2022/01/12 00:24:15;;;;;;;;;;;;;;;;;;2098840;28;19919;-86
2022/01/12 00:34:06;;;;;;;;;;;;;;;;;;2098813;28;19944;-86
2022/01/12 00:35:07;;;;;;;;;;;;;;;;;;2089963;28;19909;-85
2022/01/12 00:36:07;;;;;;;;;;;;;;;;;;2089865;28;19901;-85
2022/01/12 00:37:07;;;;;;;;;;;;;;;;;;2090194;28;20357;-85
2022/01/12 00:38:08;;;;;;;;;;;;;;;;;;2090064;28;19999;-85
2022/01/12 00:39:08;;;;;;;;;;;;;;;;;;2089877;28;20420;-86
2022/01/12 00:40:09;;;;;;;;;;;;;;;;;;2089715;28;19978;-86
2022/01/12 00:41:09;;;;;;;;;;;;;;;;;;2090081;28;19909;-85
2022/01/12 00:42:13;;;;;;;;;;;;;;;;;;2098847;28;19908;-86
2022/01/12 00:43:14;;;;;;;;;;;;;;;;;;2098651;28;20406;-85
2022/01/12 00:44:31;;;;;;;;;;;;;;;;;;2098508;28;20333;-86
2022/01/12 00:45:32;;;;;;;;;;;;;;;;;;2098568;28;20293;-85
2022/01/12 00:46:33;;;;;;;;;;;;;;;;;;2098532;28;19918;-84
2022/01/12 00:47:33;;;;;;;;;;;;;;;;;;2098520;28;20510;-86
2022/01/12 00:48:36;;;;;;;;;;;;;;;;;;2098496;28;19908;-86
2022/01/12 00:49:36;;;;;;;;;;;;;;;;;;2098602;28;19918;-86
2022/01/12 00:50:37;;;;;;;;;;;;;;;;;;2089688;28;19920;-84
2022/01/12 00:51:39;;;;;;;;;;;;;;;;;;2081686;28;20361;-86
2022/01/12 00:52:39;;;;;;;;;;;;;;;;;;2089696;28;20280;-85
2022/01/12 00:53:39;;;;;;;;;;;;;;;;;;2089985;28;19908;-85
2022/01/12 00:54:40;;;;;;;;;;;;;;;;;;2098546;28;19919;-84
2022/01/12 00:55:41;;;;;;;;;;;;;;;;;;2098674;28;20368;-85
2022/01/12 00:56:41;;;;;;;;;;;;;;;;;;2089579;28;20305;-84
2022/01/12 00:57:42;;;;;;;;;;;;;;;;;;2081468;28;19924;-85
2022/01/12 00:58:42;;;;;;;;;;;;;;;;;;2081382;28;19940;-85
2022/01/12 00:59:42;;;;;;;;;;;;;;;;;;2089790;28;19916;-85
2022/01/12 01:00:42;;;;;;;;;;;;;;;;;;2089654;28;19909;-85
2022/01/12 01:01:43;;;;;;;;;;;;;;;;;;2089937;28;20348;-86
2022/01/12 01:02:43;;;;;;;;;;;;;;;;;;2089664;28;19916;-84
2022/01/12 01:03:43;;;;;;;;;;;;;;;;;;2089845;28;19932;-84
2022/01/12 01:04:44;;;;;;;;;;;;;;;;;;2098315;28;20029;-85
2022/01/12 01:05:44;;;;;;;;;;;;;;;;;;2089677;28;20003;-85
2022/01/12 01:06:44;;;;;;;;;;;;;;;;;;2081403;28;19929;-84
2022/01/12 01:07:45;;;;;;;;;;;;;;;;;;2089766;28;19913;-85
2022/01/12 01:08:48;;;;;;;;;;;;;;;;;;2098424;28;19908;-85
2022/01/12 01:10:00;;;;;;;;;;;;;;;;;;2089610;28;19912;-86
2022/01/12 01:11:00;;;;;;;;;;;;;;;;;;2092970;28;19999;-86
2022/01/12 01:12:01;;;;;;;;;;;;;;;;;;2098434;28;19904;-85
2022/01/12 01:13:01;;;;;;;;;;;;;;;;;;2098417;28;19909;-86
2022/01/12 01:14:11;;;;;;;;;;;;;;;;;;2098487;28;20338;-85
2022/01/12 01:15:14;;;;;;;;;;;;;;;;;;2099944;28;20272;-85
2022/01/12 01:25:20;;;;;;;;;;;;;;;;;;2089581;28;19916;-85
2022/01/12 01:26:29;;;;;;;;;;;;;;;;;;2099201;28;20254;-83
2022/01/12 01:27:29;;;;;;;;;;;;;;;;;;2090125;28;19953;-84
2022/01/12 01:28:29;;;;;;;;;;;;;;;;;;2091278;28;19908;-85
2022/01/12 01:29:30;;;;;;;;;;;;;;;;;;2098569;28;19912;-85
2022/01/12 01:30:31;;;;;;;;;;;;;;;;;;2089564;28;19959;-85
2022/01/12 01:31:33;;;;;;;;;;;;;;;;;;2089913;28;19920;-84
2022/01/12 01:32:35;;;;;;;;;;;;;;;;;;2098255;28;19974;-84
2022/01/12 01:33:35;;;;;;;;;;;;;;;;;;2089578;28;19909;-84
2022/01/12 01:34:42;;;;;;;;;;;;;;;;;;2081258;28;19908;-84
2022/01/12 01:35:52;;;;;;;;;;;;;;;;;;2092907;28;19956;-84
2022/01/12 01:36:53;;;;;;;;;;;;;;;;;;2089406;28;20355;-83
2022/01/12 01:37:54;;;;;;;;;;;;;;;;;;2089738;28;20289;-85
2022/01/12 01:38:54;;;;;;;;;;;;;;;;;;2089588;28;19913;-84
2022/01/12 01:39:54;;;;;;;;;;;;;;;;;;2089548;28;19913;-83
2022/01/12 01:40:55;;;;;;;;;;;;;;;;;;2098252;28;20376;-83
2022/01/12 01:41:59;;;;;;;;;;;;;;;;;;2089537;28;19919;-84
2022/01/12 01:53:21;;;;;;;;;;;;;;;;;;2098275;28;20397;-85
2022/01/12 01:54:22;;;;;;;;;;;;;;;;;;2098455;28;20172;-84
2022/01/12 01:55:22;;;;;;;;;;;;;;;;;;2098274;28;20396;-84
2022/01/12 01:56:22;;;;;;;;;;;;;;;;;;2098414;28;19909;-85
2022/01/12 01:57:24;;;;;;;;;;;;;;;;;;2098264;28;19908;-85
2022/01/12 01:58:24;;;;;;;;;;;;;;;;;;2098398;28;19920;-84
2022/01/12 01:59:24;;;;;;;;;;;;;;;;;;2089402;28;19992;-83
2022/01/12 02:00:26;;;;;;;;;;;;;;;;;;2089615;28;19923;-84
2022/01/12 02:01:28;;;;;;;;;;;;;;;;;;2089367;28;20345;-84
2022/01/12 02:02:29;;;;;;;;;;;;;;;;;;2090051;28;19943;-84
2022/01/12 02:03:29;;;;;;;;;;;;;;;;;;2089424;28;19909;-83
2022/01/12 02:04:30;;;;;;;;;;;;;;;;;;2089615;28;19916;-84
2022/01/12 02:05:31;;;;;;;;;;;;;;;;;;2089335;28;20265;-84
2022/01/12 02:06:34;;;;;;;;;;;;;;;;;;2081367;28;20003;-84
2022/01/12 02:07:34;;;;;;;;;;;;;;;;;;2089857;28;19908;-82
2022/01/12 02:08:37;;;;;;;;;;;;;;;;;;2089408;28;19909;-85
2022/01/12 02:09:37;;;;;;;;;;;;;;;;;;2089702;28;19920;-84
2022/01/12 02:10:38;;;;;;;;;;;;;;;;;;2098310;28;19904;-84
2022/01/12 02:11:39;;;;;;;;;;;;;;;;;;2098130;28;19908;-84
2022/01/12 02:12:39;;;;;;;;;;;;;;;;;;2089445;28;20447;-83
2022/01/12 02:13:39;;;;;;;;;;;;;;;;;;2081093;28;19909;-84
2022/01/12 02:14:39;;;;;;;;;;;;;;;;;;2089609;28;19956;-84
2022/01/12 02:15:44;;;;;;;;;;;;;;;;;;2098106;28;19908;-84
2022/01/12 02:16:56;;;;;;;;;;;;;;;;;;2098183;28;19973;-85
2022/01/12 02:19:17;;;;;;;;;;;;;;;;;;2098317;28;19999;-85
2022/01/12 02:36:15;;;;;;;;;;;;;;;;;;2098278;28;20342;-84
2022/01/12 02:39:49;;;;;;;;;;;;;;;;;;2098669;28;19908;-84
2022/01/12 02:39:59;;;;;;;;;;;;;;;;;;2098126;28;20003;-84
2022/01/12 02:40:59;;;;;;;;;;;;;;;;;;2098192;28;19916;-83
2022/01/12 02:41:59;;;;;;;;;;;;;;;;;;2098234;28;19969;-84
2022/01/12 02:43:13;;;;;;;;;;;;;;;;;;2098068;28;20389;-84
2022/01/12 02:54:38;;;;;;;;;;;;;;;;;;2099651;28;19991;-83
2022/01/12 02:55:38;;;;;;;;;;;;;;;;;;2099443;28;19908;-83
2022/01/12 02:56:38;;;;;;;;;;;;;;;;;;2099674;28;19945;-83
2022/01/12 02:57:39;;;;;;;;;;;;;;;;;;2090716;28;20330;-83
2022/01/12 02:58:40;;;;;;;;;;;;;;;;;;2082526;28;19977;-83
2022/01/12 02:59:58;;;;;;;;;;;;;;;;;;2082458;28;20318;-84
2022/01/12 03:03:03;;;;;;;;;;;;;;;;;;2099580;28;20002;-83
2022/01/12 03:04:06;;;;;;;;;;;;;;;;;;2099550;28;20081;-83
2022/01/12 03:05:33;;;;;;;;;;;;;;;;;;2090726;28;19919;-83
2022/01/12 03:06:37;;;;;;;;;;;;;;;;;;2094922;28;20353;-83
2022/01/12 03:07:39;;;;;;;;;;;;;;;;;;2099509;28;19908;-83
2022/01/12 03:08:39;;;;;;;;;;;;;;;;;;2099353;28;20018;-83
2022/01/12 03:09:40;;;;;;;;;;;;;;;;;;2090698;28;19909;-83
2022/01/12 03:10:40;;;;;;;;;;;;;;;;;;2090725;28;20317;-83
2022/01/12 03:11:40;;;;;;;;;;;;;;;;;;2099479;28;19935;-84
2022/01/12 03:12:42;;;;;;;;;;;;;;;;;;2090524;28;19900;-83
2022/01/12 03:13:42;;;;;;;;;;;;;;;;;;2090893;28;19909;-83
2022/01/12 03:14:43;;;;;;;;;;;;;;;;;;2099333;28;20407;-83
2022/01/12 03:15:43;;;;;;;;;;;;;;;;;;2090795;28;19913;-84
2022/01/12 03:16:43;;;;;;;;;;;;;;;;;;2090629;28;19917;-83
2022/01/12 03:17:44;;;;;;;;;;;;;;;;;;2090764;28;19913;-83
2022/01/12 03:18:45;;;;;;;;;;;;;;;;;;2082364;28;19909;-83
2022/01/12 03:19:45;;;;;;;;;;;;;;;;;;2090672;28;19986;-83
2022/01/12 03:20:46;;;;;;;;;;;;;;;;;;2099198;28;19916;-84
2022/01/12 03:21:46;;;;;;;;;;;;;;;;;;2099353;28;19919;-83
2022/01/12 03:22:46;;;;;;;;;;;;;;;;;;2099097;28;19935;-83
2022/01/12 03:23:47;;;;;;;;;;;;;;;;;;2098681;28;19919;-83
2022/01/12 03:24:47;;;;;;;;;;;;;;;;;;2098835;28;20381;-83
2022/01/12 03:25:49;;;;;;;;;;;;;;;;;;2099199;28;19915;-83
2022/01/12 03:26:49;;;;;;;;;;;;;;;;;;2099310;28;20008;-83
2022/01/12 03:27:50;;;;;;;;;;;;;;;;;;2099247;28;19904;-83
2022/01/12 03:28:55;;;;;;;;;;;;;;;;;;2099263;28;19919;-83
2022/01/12 03:29:56;;;;;;;;;;;;;;;;;;2099238;28;20422;-83
2022/01/12 03:31:08;;;;;;;;;;;;;;;;;;2090585;28;19943;-83
2022/01/12 03:32:11;;;;;;;;;;;;;;;;;;2083592;28;19952;-83
2022/01/12 03:34:41;;;;;;;;;;;;;;;;;;2078362;28;19970;-85
2022/01/12 04:08:48;;;;;;;;;;;;;;;;;;2098786;28;19916;-84
2022/01/12 04:09:49;;;;;;;;;;;;;;;;;;2099103;28;19908;-84
2022/01/12 04:10:50;;;;;;;;;;;;;;;;;;2098603;28;19908;-85
2022/01/12 04:11:51;;;;;;;;;;;;;;;;;;2098628;28;19908;-84
2022/01/12 04:12:51;;;;;;;;;;;;;;;;;;2098622;28;19963;-84
2022/01/12 04:13:52;;;;;;;;;;;;;;;;;;2098714;28;20233;-84
2022/01/12 04:14:52;;;;;;;;;;;;;;;;;;2089941;28;19928;-85
2022/01/12 04:15:55;;;;;;;;;;;;;;;;;;2090146;28;19908;-84
2022/01/12 04:16:56;;;;;;;;;;;;;;;;;;2098762;28;19951;-85
2022/01/12 04:17:56;;;;;;;;;;;;;;;;;;2098632;28;19920;-84
2022/01/12 04:18:56;;;;;;;;;;;;;;;;;;2098741;28;20418;-84
2022/01/12 04:19:57;;;;;;;;;;;;;;;;;;2098668;28;19913;-84
2022/01/12 04:21:00;;;;;;;;;;;;;;;;;;2089969;28;19966;-84
2022/01/12 04:22:18;;;;;;;;;;;;;;;;;;2090283;28;19908;-85
2022/01/12 04:23:21;;;;;;;;;;;;;;;;;;2098479;28;20398;-85
2022/01/12 04:24:21;;;;;;;;;;;;;;;;;;2090009;28;19916;-84
2022/01/12 04:25:24;;;;;;;;;;;;;;;;;;2089832;28;19956;-85
2022/01/12 04:26:26;;;;;;;;;;;;;;;;;;2089625;28;19920;-84
2022/01/12 04:27:26;;;;;;;;;;;;;;;;;;2090021;28;20284;-84
2022/01/12 04:28:28;;;;;;;;;;;;;;;;;;2098615;28;19920;-84
2022/01/12 04:29:28;;;;;;;;;;;;;;;;;;2099184;28;19951;-84
2022/01/12 04:30:28;;;;;;;;;;;;;;;;;;2090289;28;19919;-84
2022/01/12 04:31:28;;;;;;;;;;;;;;;;;;2089858;28;19908;-84
2022/01/12 04:32:29;;;;;;;;;;;;;;;;;;2098969;28;20041;-84
2022/01/12 04:33:30;;;;;;;;;;;;;;;;;;2098515;28;19916;-83
2022/01/12 04:34:31;;;;;;;;;;;;;;;;;;2098738;28;19912;-84
2022/01/12 04:35:35;;;;;;;;;;;;;;;;;;2099016;28;19908;-84
2022/01/12 04:36:35;;;;;;;;;;;;;;;;;;2090548;28;19942;-84
2022/01/12 04:37:36;;;;;;;;;;;;;;;;;;2082334;28;19908;-84
2022/01/12 04:38:38;;;;;;;;;;;;;;;;;;2089914;28;19913;-84
2022/01/12 04:39:38;;;;;;;;;;;;;;;;;;2099486;28;20007;-84
2022/01/12 04:40:39;;;;;;;;;;;;;;;;;;2089852;28;19909;-84
2022/01/12 04:41:39;;;;;;;;;;;;;;;;;;2091117;28;19920;-84
2022/01/12 04:42:39;;;;;;;;;;;;;;;;;;2092067;28;19967;-84
2022/01/12 04:43:41;;;;;;;;;;;;;;;;;;2082483;28;20003;-84
2022/01/12 04:44:45;;;;;;;;;;;;;;;;;;2090232;28;20038;-84
2022/01/12 04:47:02;;;;;;;;;;;;;;;;;;2098244;28;19908;-84
2022/01/12 04:48:32;;;;;;;;;;;;;;;;;;2089892;28;19909;-84
2022/01/12 04:50:38;;;;;;;;;;;;;;;;;;2098302;28;20253;-84
2022/01/12 04:51:38;;;;;;;;;;;;;;;;;;2098283;28;19919;-85
2022/01/12 04:52:39;;;;;;;;;;;;;;;;;;2089682;28;19974;-85
2022/01/12 04:53:39;;;;;;;;;;;;;;;;;;2089648;28;19908;-84
2022/01/12 04:54:39;;;;;;;;;;;;;;;;;;2098178;28;19992;-83
2022/01/12 04:55:40;;;;;;;;;;;;;;;;;;2098160;28;19908;-83
2022/01/12 04:56:40;;;;;;;;;;;;;;;;;;2098324;28;19918;-84
2022/01/12 04:57:41;;;;;;;;;;;;;;;;;;2098388;28;19908;-83
2022/01/12 04:58:41;;;;;;;;;;;;;;;;;;2098569;28;19908;-83
2022/01/12 04:59:57;;;;;;;;;;;;;;;;;;2089482;28;20525;-85
2022/01/12 05:01:05;;;;;;;;;;;;;;;;;;2083445;28;20373;-85
2022/01/12 05:06:23;;;;;;;;;;;;;;;;;;2093648;28;19908;-84
2022/01/12 05:07:13;;;;;;;;;;;;;;;;;;2081128;28;19909;-85
2022/01/12 05:07:59;;;;;;;;;;;;;;;;;;2074041;28;19936;-85
2022/01/12 05:12:54;;;;;;;;;;;;;;;;;;2098228;28;20363;-84
2022/01/12 05:13:55;;;;;;;;;;;;;;;;;;2089421;28;20151;-84
2022/01/12 05:15:12;;;;;;;;;;;;;;;;;;2089769;28;19912;-85
2022/01/12 05:16:12;;;;;;;;;;;;;;;;;;2089258;28;20351;-85
2022/01/12 05:17:12;;;;;;;;;;;;;;;;;;2089768;28;19909;-84
2022/01/12 05:18:13;;;;;;;;;;;;;;;;;;2089294;28;19934;-85
2022/01/12 05:19:52;;;;;;;;;;;;;;;;;;;;;
2022/01/12 05:20:55;;;;;;;;;;;;;;;;;;2098471;28;19924;-85
2022/01/12 05:21:55;;;;;;;;;;;;;;;;;;2098189;28;19962;-83
2022/01/12 05:23:03;;;;;;;;;;;;;;;;;;2098085;28;19915;-84
2022/01/12 05:24:06;;;;;;;;;;;;;;;;;;2098184;28;19908;-85
2022/01/12 05:25:07;;;;;;;;;;;;;;;;;;2098248;28;19909;-84
2022/01/12 05:26:07;;;;;;;;;;;;;;;;;;2098020;28;19912;-84
2022/01/12 05:27:07;;;;;;;;;;;;;;;;;;2098324;28;20089;-84
2022/01/12 05:28:08;;;;;;;;;;;;;;;;;;2098105;28;20620;-84
2022/01/12 05:29:08;;;;;;;;;;;;;;;;;;2098139;28;19951;-85
2022/01/12 05:30:09;;;;;;;;;;;;;;;;;;2089405;28;19913;-84
2022/01/12 05:31:10;;;;;;;;;;;;;;;;;;2089375;28;20266;-84
2022/01/12 05:32:11;;;;;;;;;;;;;;;;;;2098123;28;19908;-84
2022/01/12 05:33:11;;;;;;;;;;;;;;;;;;2089346;28;20297;-84
2022/01/12 05:34:11;;;;;;;;;;;;;;;;;;2089486;28;19951;-84
2022/01/12 05:35:14;;;;;;;;;;;;;;;;;;2098393;28;20007;-84
2022/01/12 05:36:17;;;;;;;;;;;;;;;;;;2089161;28;19951;-84
2022/01/12 05:37:17;;;;;;;;;;;;;;;;;;2089783;28;19912;-84
2022/01/12 05:38:18;;;;;;;;;;;;;;;;;;2089414;28;19978;-84
2022/01/12 05:39:18;;;;;;;;;;;;;;;;;;2089441;28;20378;-84
2022/01/12 05:40:20;;;;;;;;;;;;;;;;;;2098028;28;19912;-85
2022/01/12 05:41:23;;;;;;;;;;;;;;;;;;2089237;28;19912;-84
2022/01/12 05:42:23;;;;;;;;;;;;;;;;;;2081568;28;19920;-84
2022/01/12 05:43:26;;;;;;;;;;;;;;;;;;2089236;28;19913;-84
2022/01/12 05:44:27;;;;;;;;;;;;;;;;;;2098121;28;19920;-85
2022/01/12 05:45:28;;;;;;;;;;;;;;;;;;2098025;28;19900;-85
2022/01/12 05:46:30;;;;;;;;;;;;;;;;;;2098123;28;19985;-83
2022/01/12 05:47:39;;;;;;;;;;;;;;;;;;2089002;28;19913;-84
2022/01/12 05:50:00;;;;;;;;;;;;;;;;;;2098120;28;20273;-84
2022/01/12 05:51:00;;;;;;;;;;;;;;;;;;2097989;28;19909;-84
2022/01/12 05:52:00;;;;;;;;;;;;;;;;;;2098284;28;20003;-84
2022/01/12 05:53:00;;;;;;;;;;;;;;;;;;2089416;28;20343;-83
2022/01/12 05:54:01;;;;;;;;;;;;;;;;;;2080990;28;20000;-82
2022/01/12 05:55:03;;;;;;;;;;;;;;;;;;2089209;28;19995;-83
2022/01/12 05:56:03;;;;;;;;;;;;;;;;;;2098060;28;19908;-83
2022/01/12 05:57:04;;;;;;;;;;;;;;;;;;2097949;28;19927;-83
2022/01/12 05:58:04;;;;;;;;;;;;;;;;;;2097893;28;19982;-85
2022/01/12 05:59:04;;;;;;;;;;;;;;;;;;2089249;28;19920;-83
2022/01/12 06:00:07;;;;;;;;;;;;;;;;;;2080755;28;19913;-85
2022/01/12 06:01:07;;;;;;;;;;;;;;;;;;2089706;28;19909;-83
2022/01/12 06:02:07;;;;;;;;;;;;;;;;;;2089181;28;19936;-85
2022/01/12 06:03:07;;;;;;;;;;;;;;;;;;2081155;28;19909;-84
2022/01/12 06:04:08;;;;;;;;;;;;;;;;;;2080975;28;20347;-85
2022/01/12 06:05:08;;;;;;;;;;;;;;;;;;2089288;28;19909;-84
2022/01/12 06:06:09;;;;;;;;;;;;;;;;;;2095280;28;19916;-84
2022/01/12 06:07:09;;;;;;;;;;;;;;;;;;2083655;28;19909;-84
2022/01/12 06:08:09;;;;;;;;;;;;;;;;;;2080746;28;20255;-85
2022/01/12 06:09:09;;;;;;;;;;;;;;;;;;2091181;28;19915;-85
2022/01/12 06:10:10;;;;;;;;;;;;;;;;;;2089558;28;19916;-84
2022/01/12 06:11:11;;;;;;;;;;;;;;;;;;2089736;28;19916;-84
2022/01/12 06:12:11;;;;;;;;;;;;;;;;;;2089601;28;20349;-85
2022/01/12 06:13:13;;;;;;;;;;;;;;;;;;2081022;28;20297;-83
2022/01/12 06:14:18;;;;;;;;;;;;;;;;;;2081508;28;19909;-83
2022/01/12 06:15:19;;;;;;;;;;;;;;;;;;2095353;28;19919;-84
2022/01/12 06:16:19;;;;;;;;;;;;;;;;;;2089282;28;19909;-85
2022/01/12 06:17:19;;;;;;;;;;;;;;;;;;2082867;28;20338;-84
2022/01/12 06:18:20;;;;;;;;;;;;;;;;;;2089871;28;19996;-85
2022/01/12 06:19:20;;;;;;;;;;;;;;;;;;2089917;28;20211;-85
2022/01/12 06:20:20;;;;;;;;;;;;;;;;;;2081190;28;19923;-84
2022/01/12 06:21:21;;;;;;;;;;;;;;;;;;2083770;28;19920;-85
2022/01/12 06:22:21;;;;;;;;;;;;;;;;;;2098459;28;19908;-84
2022/01/12 06:23:21;;;;;;;;;;;;;;;;;;2098069;28;19915;-84
2022/01/12 06:24:21;;;;;;;;;;;;;;;;;;2096818;28;19966;-84
2022/01/12 06:25:22;;;;;;;;;;;;;;;;;;2097749;28;20065;-84
2022/01/12 06:26:25;;;;;;;;;;;;;;;;;;2099679;28;19909;-85
2022/01/12 06:27:29;;;;;;;;;;;;;;;;;;2099515;28;19908;-84
2022/01/12 06:29:42;;;;;;;;;;;;;;;;;;2084389;28;19909;-84
2022/01/12 06:32:01;;;;;;;;;;;;;;;;;;2091584;28;20301;-84
2022/01/12 06:33:02;;;;;;;;;;;;;;;;;;2091295;28;19908;-84
2022/01/12 06:34:02;;;;;;;;;;;;;;;;;;2091229;28;20281;-84
2022/01/12 06:35:02;;;;;;;;;;;;;;;;;;2091387;28;19920;-84
2022/01/12 06:36:03;;;;;;;;;;;;;;;;;;2091210;28;19901;-84
2022/01/12 06:37:03;;;;;;;;;;;;;;;;;;2092259;28;20144;-84
2022/01/12 06:38:06;;;;;;;;;;;;;;;;;;2095051;28;19912;-84
2022/01/12 06:39:07;;;;;;;;;;;;;;;;;;2097525;28;19909;-84
2022/01/12 06:40:07;;;;;;;;;;;;;;;;;;2091326;28;19917;-84
2022/01/12 06:41:09;;;;;;;;;;;;;;;;;;2091301;28;19947;-84
2022/01/12 06:42:09;;;;;;;;;;;;;;;;;;2091264;28;20002;-84
2022/01/12 06:43:09;;;;;;;;;;;;;;;;;;2091331;28;20262;-84
2022/01/12 06:44:12;;;;;;;;;;;;;;;;;;2091425;28;19940;-84
2022/01/12 06:45:13;;;;;;;;;;;;;;;;;;2091257;28;20353;-84
2022/01/12 06:46:21;;;;;;;;;;;;;;;;;;2091136;28;19901;-84
2022/01/12 06:47:22;;;;;;;;;;;;;;;;;;2092088;28;20078;-84
2022/01/12 06:48:22;;;;;;;;;;;;;;;;;;2082476;28;20413;-84
2022/01/12 06:49:22;;;;;;;;;;;;;;;;;;2082512;28;19909;-84
2022/01/12 06:50:23;;;;;;;;;;;;;;;;;;2082497;28;20032;-84
2022/01/12 06:51:23;;;;;;;;;;;;;;;;;;2091303;28;19939;-84
2022/01/12 06:52:23;;;;;;;;;;;;;;;;;;2082350;28;19913;-84
2022/01/12 06:53:24;;;;;;;;;;;;;;;;;;2082315;28;19952;-82
2022/01/12 06:54:24;;;;;;;;;;;;;;;;;;2090945;28;20046;-84
2022/01/12 06:55:25;;;;;;;;;;;;;;;;;;2091184;28;19909;-84
2022/01/12 06:56:25;;;;;;;;;;;;;;;;;;2082238;28;19909;-84
2022/01/12 06:57:25;;;;;;;;;;;;;;;;;;2082471;28;20338;-85
2022/01/12 06:58:26;;;;;;;;;;;;;;;;;;2082286;28;19920;-83
2022/01/12 06:59:26;;;;;;;;;;;;;;;;;;2074178;28;19937;-84
2022/01/12 07:00:26;;;;;;;;;;;;;;;;;;2073943;28;19913;-85
2022/01/12 07:01:27;;;;;;;;;;;;;;;;;;2082373;28;19909;-83
2022/01/12 07:02:27;;;;;;;;;;;;;;;;;;2090876;28;19909;-83
2022/01/12 07:03:28;;;;;;;;;;;;;;;;;;2082598;28;19944;-83
2022/01/12 07:04:28;;;;;;;;;;;;;;;;;;2082279;28;20015;-85
2022/01/12 07:05:29;;;;;;;;;;;;;;;;;;2091238;28;19919;-85
2022/01/12 07:06:29;;;;;;;;;;;;;;;;;;2082206;28;19909;-85
2022/01/12 07:07:29;;;;;;;;;;;;;;;;;;2082421;28;19909;-85
2022/01/12 07:08:32;;;;;;;;;;;;;;;;;;2091033;28;19994;-85
2022/01/12 07:09:32;;;;;;;;;;;;;;;;;;2090931;28;19920;-85
2022/01/12 07:10:32;;;;;;;;;;;;;;;;;;2090979;28;20011;-84
2022/01/12 07:11:32;;;;;;;;;;;;;;;;;;2090948;28;19935;-84
2022/01/12 07:12:33;;;;;;;;;;;;;;;;;;2090984;28;19909;-85
2022/01/12 07:13:33;;;;;;;;;;;;;;;;;;2091137;28;20155;-83
2022/01/12 07:14:33;;;;;;;;;;;;;;;;;;2090756;28;20456;-84
2022/01/12 07:15:34;;;;;;;;;;;;;;;;;;2090579;28;19912;-85
2022/01/12 07:16:34;;;;;;;;;;;;;;;;;;2091005;28;19974;-83
2022/01/12 07:17:35;;;;;;;;;;;;;;;;;;2090755;28;20238;-85
2022/01/12 07:18:35;;;;;;;;;;;;;;;;;;2091177;28;19909;-83
2022/01/12 07:19:35;;;;;;;;;;;;;;;;;;2081791;28;20015;-84
2022/01/12 07:20:36;;;;;;;;;;;;;;;;;;2082360;28;19992;-85
2022/01/12 07:21:36;;;;;;;;;;;;;;;;;;2090673;28;20312;-83
2022/01/12 07:22:36;;;;;;;;;;;;;;;;;;2090855;28;19908;-84
2022/01/12 07:23:36;;;;;;;;;;;;;;;;;;2091158;28;19939;-84
2022/01/12 07:24:37;;;;;;;;;;;;;;;;;;2090991;28;19909;-84
2022/01/12 07:25:37;;;;;;;;;;;;;;;;;;2090608;28;19909;-85
2022/01/12 07:26:37;;;;;;;;;;;;;;;;;;2094607;28;19931;-83
2022/01/12 07:27:39;;;;;;;;;;;;;;;;;;2094624;28;19913;-85
2022/01/12 07:28:39;;;;;;;;;;;;;;;;;;2090381;28;19963;-85
2022/01/12 07:29:48;;;;;;;;;;;;;;;;;;2090235;28;19908;-84
2022/01/12 07:30:49;;;;;;;;;;;;;;;;;;2099465;28;19940;-84
2022/01/12 07:31:49;;;;;;;;;;;;;;;;;;2090284;28;20281;-84
2022/01/12 07:32:50;;;;;;;;;;;;;;;;;;2082264;28;19904;-84
2022/01/12 07:33:50;;;;;;;;;;;;;;;;;;2090455;28;20440;-84
2022/01/12 07:34:50;;;;;;;;;;;;;;;;;;2092245;28;19920;-84
2022/01/12 07:35:51;;;;;;;;;;;;;;;;;;2094285;28;20361;-84
2022/01/12 07:36:51;;;;;;;;;;;;;;;;;;2094112;28;20317;-83
2022/01/12 07:37:51;;;;;;;;;;;;;;;;;;2090313;28;19908;-84
2022/01/12 07:38:55;;;;;;;;;;;;;;;;;;2090565;28;19916;-83
2022/01/12 07:39:55;;;;;;;;;;;;;;;;;;2090609;28;19974;-83
2022/01/12 07:40:56;;;;;;;;;;;;;;;;;;2090806;28;19909;-83
2022/01/12 07:41:56;;;;;;;;;;;;;;;;;;2090207;28;20741;-83
2022/01/12 07:42:57;;;;;;;;;;;;;;;;;;2090120;28;20378;-84
2022/01/12 07:43:57;;;;;;;;;;;;;;;;;;2090076;28;19951;-84
2022/01/12 07:45:01;;;;;;;;;;;;;;;;;;2081342;28;20007;-84
2022/01/12 07:46:01;;;;;;;;;;;;;;;;;;2081620;28;19909;-84
2022/01/12 07:47:02;;;;;;;;;;;;;;;;;;2089779;28;19920;-85
2022/01/12 07:48:02;;;;;;;;;;;;;;;;;;2090301;28;19905;-85
2022/01/12 07:49:03;;;;;;;;;;;;;;;;;;2090662;28;20368;-83
2022/01/12 07:50:04;;;;;;;;;;;;;;;;;;2089972;28;19913;-84
2022/01/12 07:51:04;;;;;;;;;;;;;;;;;;2089862;28;19913;-85
2022/01/12 07:52:05;;;;;;;;;;;;;;;;;;2089810;28;19995;-85
2022/01/12 07:53:05;;;;;;;;;;;;;;;;;;2089894;28;19909;-85
2022/01/12 07:54:06;;;;;;;;;;;;;;;;;;2089938;28;19916;-85
2022/01/12 07:55:06;;;;;;;;;;;;;;;;;;2089840;28;19908;-84
2022/01/12 07:56:07;;;;;;;;;;;;;;;;;;2089413;28;20343;-84
2022/01/12 07:57:07;;;;;;;;;;;;;;;;;;2089506;28;19930;-84
2022/01/12 07:58:07;;;;;;;;;;;;;;;;;;2089956;28;19959;-84
2022/01/12 07:59:08;;;;;;;;;;;;;;;;;;2090330;28;19953;-85
2022/01/12 08:00:08;;;;;;;;;;;;;;;;;;2090310;28;19966;-84
2022/01/12 08:01:08;;;;;;;;;;;;;;;;;;2090279;28;19919;-83
2022/01/12 08:02:09;;;;;;;;;;;;;;;;;;2090609;28;19909;-83
2022/01/12 08:03:10;;;;;;;;;;;;;;;;;;2090318;28;19908;-82
2022/01/12 08:04:10;;;;;;;;;;;;;;;;;;2090535;28;20011;-83
2022/01/12 08:05:10;;;;;;;;;;;;;;;;;;2089891;28;19909;-83
2022/01/12 08:06:11;;;;;;;;;;;;;;;;;;2089926;28;19939;-85
2022/01/12 08:07:11;;;;;;;;;;;;;;;;;;2090321;28;19924;-83
2022/01/12 08:08:12;;;;;;;;;;;;;;;;;;2090413;28;19913;-85
2022/01/12 08:09:13;;;;;;;;;;;;;;;;;;2081491;28;20345;-85
2022/01/12 08:10:13;;;;;;;;;;;;;;;;;;2081846;28;19939;-86
2022/01/12 08:11:13;;;;;;;;;;;;;;;;;;2090384;28;19964;-85
2022/01/12 08:12:13;;;;;;;;;;;;;;;;;;2090314;28;19909;-84
2022/01/12 08:13:14;;;;;;;;;;;;;;;;;;2090339;28;19970;-84
2022/01/12 08:14:15;;;;;;;;;;;;;;;;;;2081705;28;19909;-83
2022/01/12 08:15:15;;;;;;;;;;;;;;;;;;2081737;28;20429;-84
2022/01/12 08:16:15;;;;;;;;;;;;;;;;;;2089769;28;19905;-84
2022/01/12 08:17:16;;;;;;;;;;;;;;;;;;2089759;28;19916;-84
2022/01/12 08:18:16;;;;;;;;;;;;;;;;;;2081553;28;19909;-84
2022/01/12 08:19:19;;;;;;;;;;;;;;;;;;2081641;28;19909;-84
2022/01/12 08:20:24;;;;;;;;;;;;;;;;;;2081309;28;20449;-84
2022/01/12 08:21:27;;;;;;;;;;;;;;;;;;2082662;28;20420;-84
2022/01/12 08:22:27;;;;;;;;;;;;;;;;;;2090298;28;19909;-84
2022/01/12 08:23:28;;;;;;;;;;;;;;;;;;2090482;28;19944;-84
2022/01/12 08:24:28;;;;;;;;;;;;;;;;;;2081401;28;19909;-84
2022/01/12 08:25:28;;;;;;;;;;;;;;;;;;2073558;28;20271;-84
2022/01/12 08:26:28;;;;;;;;;;;;;;;;;;2081301;28;19916;-84
2022/01/12 08:27:29;;;;;;;;;;;;;;;;;;2090315;28;19987;-83
2022/01/12 08:28:29;;;;;;;;;;;;;;;;;;2090156;28;20003;-84
2022/01/12 08:29:30;;;;;;;;;;;;;;;;;;2090336;28;19915;-84
2022/01/12 08:30:31;;;;;;;;;;;;;;;;;;2090189;28;19963;-84
2022/01/12 08:31:32;;;;;;;;;;;;;;;;;;2089787;28;19920;-84
2022/01/12 08:32:32;;;;;;;;;;;;;;;;;;2089629;28;19996;-83
2022/01/12 08:33:33;;;;;;;;;;;;;;;;;;2089967;28;19908;-84
2022/01/12 08:34:33;;;;;;;;;;;;;;;;;;2098275;28;20332;-83
2022/01/12 08:35:34;;;;;;;;;;;;;;;;;;2098570;28;19912;-84
2022/01/12 08:36:34;;;;;;;;;;;;;;;;;;2090030;28;19913;-86
2022/01/12 08:37:34;;;;;;;;;;;;;;;;;;2081789;28;20004;-84
2022/01/12 08:38:34;;;;;;;;;;;;;;;;;;2081084;28;19913;-82
2022/01/12 08:39:35;;;;;;;;;;;;;;;;;;2081922;28;19995;-83
2022/01/12 08:40:38;;;;;;;;;;;;;;;;;;2096399;28;20273;-82
2022/01/12 08:41:38;;;;;;;;;;;;;;;;;;2099023;28;19923;-81
2022/01/12 08:42:39;;;;;;;;;;;;;;;;;;2094193;28;21117;-80
2022/01/12 08:43:39;;;;;;;;;;;;;;;;;;2098660;28;19905;-80
2022/01/12 08:44:39;;;;;;;;;;;;;;;;;;2092238;28;20455;-80
2022/01/12 08:45:40;;;;;;;;;;;;;;;;;;2090368;28;19940;-80
2022/01/12 08:46:41;;;;;;;;;;;;;;;;;;2089747;28;19912;-80
2022/01/12 08:47:41;;;;;;;;;;;;;;;;;;2081130;28;20396;-80
2022/01/12 08:48:42;;;;;;;;;;;;;;;;;;2081672;28;19909;-79